sensor_id;sensor_type;location;lat;lon;timestamp;temperature;humidity
55064;DHT22;40963;52.168;21.296;2023-02-24T00:01:02;2.60;99.90
55064;DHT22;40963;52.168;21.296;2023-02-24T00:03:37;2.50;99.90
55064;DHT22;40963;52.168;21.296;2023-02-24T00:06:04;2.60;99.90
55064;DHT22;40963;52.168;21.296;2023-02-24T00:08:40;2.60;99.90
55064;DHT22;40963;52.168;21.296;2023-02-24T00:11:11;2.60;99.90
55064;DHT22;40963;52.168;21.296;2023-02-24T00:13:40;2.70;99.90
55064;DHT22;40963;52.168;21.296;2023-02-24T00:16:15;2.70;99.90
55064;DHT22;40963;52.168;21.296;2023-02-24T00:18:42;2.70;99.90
55064;DHT22;40963;52.168;21.296;2023-02-24T00:21:12;2.70;99.90
55064;DHT22;40963;52.168;21.296;2023-02-24T00:23:40;2.80;99.90
55064;DHT22;40963;52.168;21.296;2023-02-24T00:26:07;2.80;99.90
55064;DHT22;40963;52.168;21.296;2023-02-24T00:28:34;2.90;99.90
55064;DHT22;40963;52.168;21.296;2023-02-24T00:31:05;2.90;99.90
55064;DHT22;40963;52.168;21.296;2023-02-24T00:33:33;2.90;99.90
55064;DHT22;40963;52.168;21.296;2023-02-24T00:38:40;3.00;99.90
55064;DHT22;40963;52.168;21.296;2023-02-24T00:43:37;3.10;99.90
55064;DHT22;40963;52.168;21.296;2023-02-24T00:46:03;3.10;99.90
55064;DHT22;40963;52.168;21.296;2023-02-24T00:48:37;3.10;99.90
55064;DHT22;40963;52.168;21.296;2023-02-24T00:51:08;3.20;99.90
55064;DHT22;40963;52.168;21.296;2023-02-24T00:53:35;3.20;99.90
55064;DHT22;40963;52.168;21.296;2023-02-24T00:56:03;3.20;99.90
55064;DHT22;40963;52.168;21.296;2023-02-24T00:58:32;3.20;99.90
55064;DHT22;40963;52.168;21.296;2023-02-24T01:00:59;3.30;99.90
55064;DHT22;40963;52.168;21.296;2023-02-24T01:03:25;3.30;99.90
55064;DHT22;40963;52.168;21.296;2023-02-24T01:05:52;3.30;99.90
55064;DHT22;40963;52.168;21.296;2023-02-24T01:08:18;3.40;99.90
55064;DHT22;40963;52.168;21.296;2023-02-24T01:10:59;3.40;99.90
55064;DHT22;40963;52.168;21.296;2023-02-24T01:13:44;3.40;99.90
55064;DHT22;40963;52.168;21.296;2023-02-24T01:16:10;3.40;99.90
55064;DHT22;40963;52.168;21.296;2023-02-24T01:18:44;3.50;99.90
55064;DHT22;40963;52.168;21.296;2023-02-24T01:21:10;3.50;99.90
55064;DHT22;40963;52.168;21.296;2023-02-24T01:23:37;3.50;99.90
55064;DHT22;40963;52.168;21.296;2023-02-24T01:26:03;3.50;99.90
55064;DHT22;40963;52.168;21.296;2023-02-24T01:28:29;3.50;99.90
55064;DHT22;40963;52.168;21.296;2023-02-24T01:31:00;3.50;99.90
55064;DHT22;40963;52.168;21.296;2023-02-24T01:33:26;3.50;99.90
55064;DHT22;40963;52.168;21.296;2023-02-24T01:35:52;3.50;99.90
55064;DHT22;40963;52.168;21.296;2023-02-24T01:38:20;3.60;99.90
55064;DHT22;40963;52.168;21.296;2023-02-24T01:40:57;3.60;99.90
55064;DHT22;40963;52.168;21.296;2023-02-24T01:43:23;3.60;99.90
55064;DHT22;40963;52.168;21.296;2023-02-24T01:45:49;3.60;99.90
55064;DHT22;40963;52.168;21.296;2023-02-24T01:48:18;3.70;99.90
55064;DHT22;40963;52.168;21.296;2023-02-24T01:50:44;3.70;99.90
55064;DHT22;40963;52.168;21.296;2023-02-24T01:53:10;3.70;99.90
55064;DHT22;40963;52.168;21.296;2023-02-24T01:55:43;3.70;99.90
55064;DHT22;40963;52.168;21.296;2023-02-24T01:58:31;3.70;99.90
55064;DHT22;40963;52.168;21.296;2023-02-24T02:00:58;3.70;99.90
55064;DHT22;40963;52.168;21.296;2023-02-24T02:03:31;3.70;99.90
55064;DHT22;40963;52.168;21.296;2023-02-24T02:06:07;3.70;99.90
55064;DHT22;40963;52.168;21.296;2023-02-24T02:08:35;3.80;99.90
55064;DHT22;40963;52.168;21.296;2023-02-24T02:11:07;3.80;99.90
55064;DHT22;40963;52.168;21.296;2023-02-24T02:13:35;3.80;99.90
55064;DHT22;40963;52.168;21.296;2023-02-24T02:16:26;3.80;99.90
55064;DHT22;40963;52.168;21.296;2023-02-24T02:21:34;3.80;99.90
55064;DHT22;40963;52.168;21.296;2023-02-24T02:24:18;3.80;99.90
55064;DHT22;40963;52.168;21.296;2023-02-24T02:27:00;3.80;99.90
55064;DHT22;40963;52.168;21.296;2023-02-24T02:29:54;3.90;99.90
55064;DHT22;40963;52.168;21.296;2023-02-24T02:35:15;3.90;99.90
55064;DHT22;40963;52.168;21.296;2023-02-24T02:37:53;3.90;99.90
55064;DHT22;40963;52.168;21.296;2023-02-24T02:40:27;3.90;99.90
55064;DHT22;40963;52.168;21.296;2023-02-24T02:45:29;3.90;99.90
55064;DHT22;40963;52.168;21.296;2023-02-24T02:48:09;3.90;99.90
55064;DHT22;40963;52.168;21.296;2023-02-24T02:50:48;3.90;99.90
55064;DHT22;40963;52.168;21.296;2023-02-24T02:56:03;4.00;99.90
55064;DHT22;40963;52.168;21.296;2023-02-24T02:58:43;4.00;99.90
55064;DHT22;40963;52.168;21.296;2023-02-24T03:01:16;4.00;99.90
55064;DHT22;40963;52.168;21.296;2023-02-24T03:03:49;4.00;99.90
55064;DHT22;40963;52.168;21.296;2023-02-24T03:06:19;4.00;99.90
55064;DHT22;40963;52.168;21.296;2023-02-24T03:11:24;4.10;99.90
55064;DHT22;40963;52.168;21.296;2023-02-24T03:13:54;4.10;99.90
55064;DHT22;40963;52.168;21.296;2023-02-24T03:16:22;4.10;99.90
55064;DHT22;40963;52.168;21.296;2023-02-24T03:18:54;4.10;99.90
55064;DHT22;40963;52.168;21.296;2023-02-24T03:21:36;4.10;99.90
55064;DHT22;40963;52.168;21.296;2023-02-24T03:24:03;4.20;99.90
55064;DHT22;40963;52.168;21.296;2023-02-24T03:32:16;4.20;99.90
55064;DHT22;40963;52.168;21.296;2023-02-24T03:34:53;4.20;99.90
55064;DHT22;40963;52.168;21.296;2023-02-24T03:37:22;4.30;99.90
55064;DHT22;40963;52.168;21.296;2023-02-24T03:39:52;4.30;99.90
55064;DHT22;40963;52.168;21.296;2023-02-24T03:42:19;4.30;99.90
55064;DHT22;40963;52.168;21.296;2023-02-24T03:44:46;4.30;99.90
55064;DHT22;40963;52.168;21.296;2023-02-24T03:47:13;4.30;99.90
55064;DHT22;40963;52.168;21.296;2023-02-24T03:49:40;4.30;99.90
55064;DHT22;40963;52.168;21.296;2023-02-24T04:06:20;4.30;99.90
55064;DHT22;40963;52.168;21.296;2023-02-24T04:09:16;4.30;99.90
55064;DHT22;40963;52.168;21.296;2023-02-24T04:11:55;4.30;99.90
55064;DHT22;40963;52.168;21.296;2023-02-24T04:14:33;4.30;99.90
55064;DHT22;40963;52.168;21.296;2023-02-24T04:17:06;4.30;99.90
55064;DHT22;40963;52.168;21.296;2023-02-24T04:19:38;4.30;99.90
55064;DHT22;40963;52.168;21.296;2023-02-24T04:22:10;4.30;99.90
55064;DHT22;40963;52.168;21.296;2023-02-24T04:24:40;4.30;99.90
55064;DHT22;40963;52.168;21.296;2023-02-24T04:27:09;4.30;99.90
55064;DHT22;40963;52.168;21.296;2023-02-24T04:29:40;4.30;99.90
55064;DHT22;40963;52.168;21.296;2023-02-24T04:32:13;4.30;99.90
55064;DHT22;40963;52.168;21.296;2023-02-24T04:34:40;4.30;99.90
55064;DHT22;40963;52.168;21.296;2023-02-24T04:37:06;4.30;99.90
55064;DHT22;40963;52.168;21.296;2023-02-24T04:39:32;4.40;99.90
55064;DHT22;40963;52.168;21.296;2023-02-24T04:41:58;4.40;99.90
55064;DHT22;40963;52.168;21.296;2023-02-24T04:44:26;4.40;99.90
55064;DHT22;40963;52.168;21.296;2023-02-24T04:46:52;4.40;99.90
55064;DHT22;40963;52.168;21.296;2023-02-24T04:49:18;4.40;99.90
55064;DHT22;40963;52.168;21.296;2023-02-24T04:51:45;4.40;99.90
55064;DHT22;40963;52.168;21.296;2023-02-24T04:54:15;4.40;99.90
55064;DHT22;40963;52.168;21.296;2023-02-24T04:56:49;4.40;99.90
55064;DHT22;40963;52.168;21.296;2023-02-24T04:59:20;4.40;99.90
55064;DHT22;40963;52.168;21.296;2023-02-24T05:01:47;4.50;99.90
55064;DHT22;40963;52.168;21.296;2023-02-24T05:04:16;4.40;99.90
55064;DHT22;40963;52.168;21.296;2023-02-24T05:06:42;4.50;99.90
55064;DHT22;40963;52.168;21.296;2023-02-24T05:09:15;4.50;99.90
55064;DHT22;40963;52.168;21.296;2023-02-24T05:11:44;4.50;99.90
55064;DHT22;40963;52.168;21.296;2023-02-24T05:14:11;4.50;99.90
55064;DHT22;40963;52.168;21.296;2023-02-24T05:16:45;4.50;99.90
55064;DHT22;40963;52.168;21.296;2023-02-24T05:19:12;4.50;99.90
55064;DHT22;40963;52.168;21.296;2023-02-24T05:21:57;4.50;99.90
55064;DHT22;40963;52.168;21.296;2023-02-24T05:24:26;4.50;99.90
55064;DHT22;40963;52.168;21.296;2023-02-24T05:26:55;4.50;99.90
55064;DHT22;40963;52.168;21.296;2023-02-24T05:29:29;4.60;99.90
55064;DHT22;40963;52.168;21.296;2023-02-24T05:31:56;4.60;99.90
55064;DHT22;40963;52.168;21.296;2023-02-24T05:34:27;4.70;99.90
55064;DHT22;40963;52.168;21.296;2023-02-24T05:36:55;4.60;99.90
55064;DHT22;40963;52.168;21.296;2023-02-24T05:39:21;4.60;99.90
55064;DHT22;40963;52.168;21.296;2023-02-24T05:41:49;4.70;99.90
55064;DHT22;40963;52.168;21.296;2023-02-24T05:44:20;4.70;99.90
55064;DHT22;40963;52.168;21.296;2023-02-24T05:46:49;4.70;99.90
55064;DHT22;40963;52.168;21.296;2023-02-24T05:49:22;4.70;99.90
55064;DHT22;40963;52.168;21.296;2023-02-24T05:51:57;4.80;99.90
55064;DHT22;40963;52.168;21.296;2023-02-24T05:54:30;4.80;99.90
55064;DHT22;40963;52.168;21.296;2023-02-24T05:57:05;4.80;99.90
55064;DHT22;40963;52.168;21.296;2023-02-24T05:59:31;4.80;99.90
55064;DHT22;40963;52.168;21.296;2023-02-24T06:02:02;4.90;99.90
55064;DHT22;40963;52.168;21.296;2023-02-24T06:04:36;4.90;99.90
55064;DHT22;40963;52.168;21.296;2023-02-24T06:07:20;4.90;99.90
55064;DHT22;40963;52.168;21.296;2023-02-24T06:09:48;4.90;99.90
55064;DHT22;40963;52.168;21.296;2023-02-24T06:12:16;5.00;99.90
55064;DHT22;40963;52.168;21.296;2023-02-24T06:14:42;5.00;99.90
55064;DHT22;40963;52.168;21.296;2023-02-24T06:17:09;5.00;99.90
55064;DHT22;40963;52.168;21.296;2023-02-24T06:19:35;5.00;99.90
55064;DHT22;40963;52.168;21.296;2023-02-24T06:22:00;5.00;99.90
55064;DHT22;40963;52.168;21.296;2023-02-24T06:24:28;5.10;99.90
55064;DHT22;40963;52.168;21.296;2023-02-24T06:26:55;5.10;99.90
55064;DHT22;40963;52.168;21.296;2023-02-24T06:29:35;5.10;99.90
55064;DHT22;40963;52.168;21.296;2023-02-24T06:32:04;5.10;99.90
55064;DHT22;40963;52.168;21.296;2023-02-24T06:34:37;5.10;99.90
55064;DHT22;40963;52.168;21.296;2023-02-24T06:37:03;5.20;99.90
55064;DHT22;40963;52.168;21.296;2023-02-24T06:39:30;5.20;99.90
55064;DHT22;40963;52.168;21.296;2023-02-24T06:41:57;5.20;99.90
55064;DHT22;40963;52.168;21.296;2023-02-24T06:44:28;5.30;99.90
55064;DHT22;40963;52.168;21.296;2023-02-24T06:46:54;5.30;99.90
55064;DHT22;40963;52.168;21.296;2023-02-24T06:49:20;5.40;99.90
55064;DHT22;40963;52.168;21.296;2023-02-24T06:51:47;5.40;99.90
55064;DHT22;40963;52.168;21.296;2023-02-24T06:54:15;5.40;99.90
55064;DHT22;40963;52.168;21.296;2023-02-24T06:56:40;5.40;99.90
55064;DHT22;40963;52.168;21.296;2023-02-24T06:59:07;5.50;99.90
55064;DHT22;40963;52.168;21.296;2023-02-24T07:01:37;5.50;99.90
55064;DHT22;40963;52.168;21.296;2023-02-24T07:04:10;5.50;99.90
55064;DHT22;40963;52.168;21.296;2023-02-24T07:06:39;5.60;99.90
55064;DHT22;40963;52.168;21.296;2023-02-24T07:09:11;5.60;99.90
55064;DHT22;40963;52.168;21.296;2023-02-24T07:11:42;5.60;99.90
55064;DHT22;40963;52.168;21.296;2023-02-24T07:14:11;5.70;99.90
55064;DHT22;40963;52.168;21.296;2023-02-24T07:16:38;5.70;99.90
55064;DHT22;40963;52.168;21.296;2023-02-24T07:19:08;5.80;99.90
55064;DHT22;40963;52.168;21.296;2023-02-24T07:21:40;5.80;99.90
55064;DHT22;40963;52.168;21.296;2023-02-24T07:24:09;5.80;99.90
55064;DHT22;40963;52.168;21.296;2023-02-24T07:26:41;5.80;99.90
55064;DHT22;40963;52.168;21.296;2023-02-24T07:29:10;5.90;99.90
55064;DHT22;40963;52.168;21.296;2023-02-24T07:31:36;5.90;99.90
55064;DHT22;40963;52.168;21.296;2023-02-24T07:34:02;6.00;99.90
55064;DHT22;40963;52.168;21.296;2023-02-24T07:36:28;6.00;99.90
55064;DHT22;40963;52.168;21.296;2023-02-24T07:38:56;6.00;99.90
55064;DHT22;40963;52.168;21.296;2023-02-24T07:41:26;6.00;99.90
55064;DHT22;40963;52.168;21.296;2023-02-24T07:43:53;6.00;99.90
55064;DHT22;40963;52.168;21.296;2023-02-24T07:46:24;6.10;99.90
55064;DHT22;40963;52.168;21.296;2023-02-24T07:48:51;6.10;99.90
55064;DHT22;40963;52.168;21.296;2023-02-24T07:51:22;6.10;99.90
55064;DHT22;40963;52.168;21.296;2023-02-24T07:53:49;6.20;99.90
55064;DHT22;40963;52.168;21.296;2023-02-24T07:56:18;6.20;99.90
55064;DHT22;40963;52.168;21.296;2023-02-24T07:58:47;6.20;99.90
55064;DHT22;40963;52.168;21.296;2023-02-24T08:01:18;6.20;99.90
55064;DHT22;40963;52.168;21.296;2023-02-24T08:03:54;6.20;99.90
55064;DHT22;40963;52.168;21.296;2023-02-24T08:06:39;6.30;99.90
55064;DHT22;40963;52.168;21.296;2023-02-24T08:09:11;6.30;99.90
55064;DHT22;40963;52.168;21.296;2023-02-24T08:11:55;6.30;99.90
55064;DHT22;40963;52.168;21.296;2023-02-24T08:14:23;6.30;99.90
55064;DHT22;40963;52.168;21.296;2023-02-24T08:16:53;6.30;99.90
55064;DHT22;40963;52.168;21.296;2023-02-24T08:19:27;6.40;99.90
55064;DHT22;40963;52.168;21.296;2023-02-24T08:21:59;6.40;99.90
55064;DHT22;40963;52.168;21.296;2023-02-24T08:24:54;6.40;99.90
55064;DHT22;40963;52.168;21.296;2023-02-24T08:27:23;6.50;99.90
55064;DHT22;40963;52.168;21.296;2023-02-24T08:29:53;6.50;99.90
55064;DHT22;40963;52.168;21.296;2023-02-24T08:32:37;6.50;99.90
55064;DHT22;40963;52.168;21.296;2023-02-24T08:35:13;6.60;99.90
55064;DHT22;40963;52.168;21.296;2023-02-24T08:37:41;6.60;99.90
55064;DHT22;40963;52.168;21.296;2023-02-24T08:43:01;6.60;99.90
55064;DHT22;40963;52.168;21.296;2023-02-24T08:45:42;6.60;99.90
55064;DHT22;40963;52.168;21.296;2023-02-24T08:48:12;6.60;99.90
55064;DHT22;40963;52.168;21.296;2023-02-24T08:51:11;6.60;99.90
55064;DHT22;40963;52.168;21.296;2023-02-24T08:53:39;6.70;99.90
55064;DHT22;40963;52.168;21.296;2023-02-24T08:56:08;6.70;99.90
55064;DHT22;40963;52.168;21.296;2023-02-24T08:58:44;6.80;99.90
55064;DHT22;40963;52.168;21.296;2023-02-24T09:01:19;6.80;99.90
55064;DHT22;40963;52.168;21.296;2023-02-24T09:03:58;6.80;99.90
55064;DHT22;40963;52.168;21.296;2023-02-24T09:06:25;6.80;99.90
55064;DHT22;40963;52.168;21.296;2023-02-24T09:08:54;6.90;99.90
55064;DHT22;40963;52.168;21.296;2023-02-24T09:11:39;6.90;99.90
55064;DHT22;40963;52.168;21.296;2023-02-24T09:14:10;6.90;99.90
55064;DHT22;40963;52.168;21.296;2023-02-24T09:16:48;7.00;99.90
55064;DHT22;40963;52.168;21.296;2023-02-24T09:19:45;7.00;99.90
55064;DHT22;40963;52.168;21.296;2023-02-24T09:22:11;7.00;99.90
55064;DHT22;40963;52.168;21.296;2023-02-24T09:27:58;7.00;99.90
55064;DHT22;40963;52.168;21.296;2023-02-24T09:30:33;7.10;99.90
55064;DHT22;40963;52.168;21.296;2023-02-24T09:35:35;7.10;99.90
55064;DHT22;40963;52.168;21.296;2023-02-24T09:38:06;7.10;99.90
55064;DHT22;40963;52.168;21.296;2023-02-24T09:40:33;7.10;99.90
55064;DHT22;40963;52.168;21.296;2023-02-24T09:43:20;7.10;99.90
55064;DHT22;40963;52.168;21.296;2023-02-24T09:48:29;7.10;99.90
55064;DHT22;40963;52.168;21.296;2023-02-24T09:50:56;7.10;99.90
55064;DHT22;40963;52.168;21.296;2023-02-24T09:53:35;7.10;99.90
55064;DHT22;40963;52.168;21.296;2023-02-24T09:56:10;7.20;99.90
55064;DHT22;40963;52.168;21.296;2023-02-24T10:04:42;7.20;99.90
55064;DHT22;40963;52.168;21.296;2023-02-24T10:07:30;7.10;99.90
55064;DHT22;40963;52.168;21.296;2023-02-24T10:10:25;7.10;99.90
55064;DHT22;40963;52.168;21.296;2023-02-24T10:15:32;7.10;99.90
55064;DHT22;40963;52.168;21.296;2023-02-24T10:24:31;7.20;99.90
55064;DHT22;40963;52.168;21.296;2023-02-24T10:27:02;7.20;99.90
55064;DHT22;40963;52.168;21.296;2023-02-24T10:29:51;7.20;99.90
55064;DHT22;40963;52.168;21.296;2023-02-24T10:35:16;7.20;99.90
55064;DHT22;40963;52.168;21.296;2023-02-24T10:37:43;7.20;99.90
55064;DHT22;40963;52.168;21.296;2023-02-24T10:40:09;7.20;99.90
55064;DHT22;40963;52.168;21.296;2023-02-24T10:42:37;7.20;99.90
55064;DHT22;40963;52.168;21.296;2023-02-24T10:45:23;7.20;99.90
55064;DHT22;40963;52.168;21.296;2023-02-24T10:47:55;7.20;99.90
55064;DHT22;40963;52.168;21.296;2023-02-24T10:50:30;7.20;99.90
55064;DHT22;40963;52.168;21.296;2023-02-24T10:53:06;7.20;99.90
55064;DHT22;40963;52.168;21.296;2023-02-24T10:55:43;7.20;99.90
55064;DHT22;40963;52.168;21.296;2023-02-24T10:58:14;7.20;99.90
55064;DHT22;40963;52.168;21.296;2023-02-24T11:00:57;7.20;99.90
55064;DHT22;40963;52.168;21.296;2023-02-24T11:03:32;7.10;99.90
55064;DHT22;40963;52.168;21.296;2023-02-24T11:06:03;7.10;99.90
55064;DHT22;40963;52.168;21.296;2023-02-24T11:08:30;7.10;99.90
55064;DHT22;40963;52.168;21.296;2023-02-24T11:11:23;7.10;99.90
55064;DHT22;40963;52.168;21.296;2023-02-24T11:13:57;7.10;99.90
55064;DHT22;40963;52.168;21.296;2023-02-24T11:16:53;7.20;99.90
55064;DHT22;40963;52.168;21.296;2023-02-24T11:19:53;7.20;99.90
55064;DHT22;40963;52.168;21.296;2023-02-24T11:22:23;7.10;99.90
55064;DHT22;40963;52.168;21.296;2023-02-24T11:24:50;7.20;99.90
55064;DHT22;40963;52.168;21.296;2023-02-24T11:27:22;7.10;99.90
55064;DHT22;40963;52.168;21.296;2023-02-24T11:32:54;7.00;99.90
55064;DHT22;40963;52.168;21.296;2023-02-24T11:35:35;7.00;99.90
55064;DHT22;40963;52.168;21.296;2023-02-24T11:40:44;6.90;99.90
55064;DHT22;40963;52.168;21.296;2023-02-24T11:43:23;6.90;99.90
55064;DHT22;40963;52.168;21.296;2023-02-24T11:45:57;6.80;99.90
55064;DHT22;40963;52.168;21.296;2023-02-24T11:48:44;6.90;99.90
55064;DHT22;40963;52.168;21.296;2023-02-24T11:51:21;6.80;99.90
55064;DHT22;40963;52.168;21.296;2023-02-24T11:54:08;6.80;99.90
55064;DHT22;40963;52.168;21.296;2023-02-24T11:56:40;6.80;99.90
55064;DHT22;40963;52.168;21.296;2023-02-24T11:59:25;6.70;99.90
55064;DHT22;40963;52.168;21.296;2023-02-24T12:02:15;6.70;99.90
55064;DHT22;40963;52.168;21.296;2023-02-24T12:04:55;6.70;99.90
55064;DHT22;40963;52.168;21.296;2023-02-24T12:08:03;6.70;99.90
55064;DHT22;40963;52.168;21.296;2023-02-24T12:10:42;6.60;99.90
55064;DHT22;40963;52.168;21.296;2023-02-24T12:13:25;6.60;99.90
55064;DHT22;40963;52.168;21.296;2023-02-24T12:18:46;6.60;99.90
55064;DHT22;40963;52.168;21.296;2023-02-24T12:21:26;6.60;99.90
55064;DHT22;40963;52.168;21.296;2023-02-24T12:23:55;6.60;99.90
55064;DHT22;40963;52.168;21.296;2023-02-24T12:26:32;6.60;99.90
55064;DHT22;40963;52.168;21.296;2023-02-24T12:45:25;6.80;99.90
55064;DHT22;40963;52.168;21.296;2023-02-24T12:48:02;6.80;99.90
55064;DHT22;40963;52.168;21.296;2023-02-24T12:50:53;6.90;99.90
55064;DHT22;40963;52.168;21.296;2023-02-24T12:53:30;7.00;99.90
55064;DHT22;40963;52.168;21.296;2023-02-24T12:58:38;7.10;99.90
55064;DHT22;40963;52.168;21.296;2023-02-24T13:01:30;7.20;99.90
55064;DHT22;40963;52.168;21.296;2023-02-24T13:12:03;7.20;99.90
55064;DHT22;40963;52.168;21.296;2023-02-24T13:14:35;7.20;99.90
55064;DHT22;40963;52.168;21.296;2023-02-24T13:19:43;7.10;99.90
55064;DHT22;40963;52.168;21.296;2023-02-24T13:27:40;7.00;99.90
55064;DHT22;40963;52.168;21.296;2023-02-24T13:32:38;7.00;99.90
55064;DHT22;40963;52.168;21.296;2023-02-24T13:37:45;7.10;99.90
55064;DHT22;40963;52.168;21.296;2023-02-24T13:45:26;7.10;99.90
55064;DHT22;40963;52.168;21.296;2023-02-24T13:56:19;7.20;99.90
55064;DHT22;40963;52.168;21.296;2023-02-24T14:01:18;7.20;99.90
55064;DHT22;40963;52.168;21.296;2023-02-24T14:03:59;7.20;99.90
55064;DHT22;40963;52.168;21.296;2023-02-24T14:06:26;7.30;99.90
55064;DHT22;40963;52.168;21.296;2023-02-24T14:08:58;7.30;99.90
55064;DHT22;40963;52.168;21.296;2023-02-24T14:11:27;7.30;99.90
55064;DHT22;40963;52.168;21.296;2023-02-24T14:13:55;7.30;99.90
55064;DHT22;40963;52.168;21.296;2023-02-24T14:16:24;7.30;99.90
55064;DHT22;40963;52.168;21.296;2023-02-24T14:18:59;7.30;99.90
55064;DHT22;40963;52.168;21.296;2023-02-24T14:21:28;7.30;99.90
55064;DHT22;40963;52.168;21.296;2023-02-24T14:23:59;7.30;99.90
55064;DHT22;40963;52.168;21.296;2023-02-24T14:26:25;7.30;99.90
55064;DHT22;40963;52.168;21.296;2023-02-24T14:28:59;7.30;99.90
55064;DHT22;40963;52.168;21.296;2023-02-24T14:31:26;7.30;99.90
55064;DHT22;40963;52.168;21.296;2023-02-24T14:34:03;7.30;99.90
55064;DHT22;40963;52.168;21.296;2023-02-24T14:36:37;7.40;99.90
55064;DHT22;40963;52.168;21.296;2023-02-24T14:39:23;7.30;99.90
55064;DHT22;40963;52.168;21.296;2023-02-24T14:41:50;7.40;99.90
55064;DHT22;40963;52.168;21.296;2023-02-24T14:44:23;7.40;99.90
55064;DHT22;40963;52.168;21.296;2023-02-24T14:46:52;7.40;99.90
55064;DHT22;40963;52.168;21.296;2023-02-24T14:49:24;7.40;99.90
55064;DHT22;40963;52.168;21.296;2023-02-24T14:52:14;7.50;99.90
55064;DHT22;40963;52.168;21.296;2023-02-24T14:54:46;7.50;99.90
55064;DHT22;40963;52.168;21.296;2023-02-24T14:57:23;7.50;99.90
55064;DHT22;40963;52.168;21.296;2023-02-24T15:00:00;7.50;99.90
55064;DHT22;40963;52.168;21.296;2023-02-24T15:02:35;7.40;99.90
55064;DHT22;40963;52.168;21.296;2023-02-24T15:05:01;7.40;99.90
55064;DHT22;40963;52.168;21.296;2023-02-24T15:07:32;7.40;99.90
55064;DHT22;40963;52.168;21.296;2023-02-24T15:10:00;7.30;99.90
55064;DHT22;40963;52.168;21.296;2023-02-24T15:12:44;7.30;99.90
55064;DHT22;40963;52.168;21.296;2023-02-24T15:15:21;7.30;99.90
55064;DHT22;40963;52.168;21.296;2023-02-24T15:17:57;7.30;99.90
55064;DHT22;40963;52.168;21.296;2023-02-24T15:22:53;7.20;99.90
55064;DHT22;40963;52.168;21.296;2023-02-24T15:25:20;7.20;99.90
55064;DHT22;40963;52.168;21.296;2023-02-24T15:27:58;7.20;99.90
55064;DHT22;40963;52.168;21.296;2023-02-24T15:30:34;7.20;99.90
55064;DHT22;40963;52.168;21.296;2023-02-24T15:33:21;7.20;99.90
55064;DHT22;40963;52.168;21.296;2023-02-24T15:35:51;7.10;99.90
55064;DHT22;40963;52.168;21.296;2023-02-24T15:38:39;7.10;99.90
55064;DHT22;40963;52.168;21.296;2023-02-24T15:41:07;7.10;99.90
55064;DHT22;40963;52.168;21.296;2023-02-24T15:43:37;7.10;99.90
55064;DHT22;40963;52.168;21.296;2023-02-24T15:46:26;7.10;99.90
55064;DHT22;40963;52.168;21.296;2023-02-24T15:48:53;7.10;99.90
55064;DHT22;40963;52.168;21.296;2023-02-24T15:53:46;7.00;99.90
55064;DHT22;40963;52.168;21.296;2023-02-24T15:56:12;7.00;99.90
55064;DHT22;40963;52.168;21.296;2023-02-24T15:58:40;7.00;99.90
55064;DHT22;40963;52.168;21.296;2023-02-24T16:01:09;7.00;99.90
55064;DHT22;40963;52.168;21.296;2023-02-24T16:03:35;6.90;99.90
55064;DHT22;40963;52.168;21.296;2023-02-24T16:06:01;7.00;99.90
55064;DHT22;40963;52.168;21.296;2023-02-24T16:08:26;6.90;99.90
55064;DHT22;40963;52.168;21.296;2023-02-24T16:10:52;6.90;99.90
55064;DHT22;40963;52.168;21.296;2023-02-24T16:13:20;6.90;99.90
55064;DHT22;40963;52.168;21.296;2023-02-24T16:15:47;6.80;99.90
55064;DHT22;40963;52.168;21.296;2023-02-24T16:18:21;6.80;99.90
55064;DHT22;40963;52.168;21.296;2023-02-24T16:20:48;6.80;99.90
55064;DHT22;40963;52.168;21.296;2023-02-24T16:23:23;6.80;99.90
55064;DHT22;40963;52.168;21.296;2023-02-24T16:25:52;6.80;99.90
55064;DHT22;40963;52.168;21.296;2023-02-24T16:28:20;6.70;99.90
55064;DHT22;40963;52.168;21.296;2023-02-24T16:30:47;6.70;99.90
55064;DHT22;40963;52.168;21.296;2023-02-24T16:33:15;6.70;99.90
55064;DHT22;40963;52.168;21.296;2023-02-24T16:35:42;6.70;99.90
55064;DHT22;40963;52.168;21.296;2023-02-24T16:38:13;6.70;99.90
55064;DHT22;40963;52.168;21.296;2023-02-24T16:40:41;6.70;99.90
55064;DHT22;40963;52.168;21.296;2023-02-24T16:43:07;6.60;99.90
55064;DHT22;40963;52.168;21.296;2023-02-24T16:45:33;6.60;99.90
55064;DHT22;40963;52.168;21.296;2023-02-24T16:48:06;6.60;99.90
55064;DHT22;40963;52.168;21.296;2023-02-24T16:50:38;6.60;99.90
55064;DHT22;40963;52.168;21.296;2023-02-24T16:53:05;6.60;99.90
55064;DHT22;40963;52.168;21.296;2023-02-24T16:55:31;6.50;99.90
55064;DHT22;40963;52.168;21.296;2023-02-24T16:57:56;6.60;99.90
55064;DHT22;40963;52.168;21.296;2023-02-24T17:00:22;6.50;99.90
55064;DHT22;40963;52.168;21.296;2023-02-24T17:02:49;6.50;99.90
55064;DHT22;40963;52.168;21.296;2023-02-24T17:05:23;6.50;99.90
55064;DHT22;40963;52.168;21.296;2023-02-24T17:07:51;6.40;99.90
55064;DHT22;40963;52.168;21.296;2023-02-24T17:10:18;6.30;99.90
55064;DHT22;40963;52.168;21.296;2023-02-24T17:12:43;6.30;99.90
55064;DHT22;40963;52.168;21.296;2023-02-24T17:15:15;6.20;99.90
55064;DHT22;40963;52.168;21.296;2023-02-24T17:17:41;6.20;99.90
55064;DHT22;40963;52.168;21.296;2023-02-24T17:20:10;6.10;99.90
55064;DHT22;40963;52.168;21.296;2023-02-24T17:22:36;6.00;99.90
55064;DHT22;40963;52.168;21.296;2023-02-24T17:25:02;6.00;99.90
55064;DHT22;40963;52.168;21.296;2023-02-24T17:27:28;5.90;99.90
55064;DHT22;40963;52.168;21.296;2023-02-24T17:29:53;5.90;99.90
55064;DHT22;40963;52.168;21.296;2023-02-24T17:32:19;5.80;99.90
55064;DHT22;40963;52.168;21.296;2023-02-24T17:34:45;5.70;99.90
55064;DHT22;40963;52.168;21.296;2023-02-24T17:37:10;5.60;99.90
55064;DHT22;40963;52.168;21.296;2023-02-24T17:39:36;5.60;99.90
55064;DHT22;40963;52.168;21.296;2023-02-24T17:42:02;5.50;99.90
55064;DHT22;40963;52.168;21.296;2023-02-24T17:44:27;5.40;99.90
55064;DHT22;40963;52.168;21.296;2023-02-24T17:46:53;5.30;99.90
55064;DHT22;40963;52.168;21.296;2023-02-24T17:49:19;5.30;99.90
55064;DHT22;40963;52.168;21.296;2023-02-24T17:51:45;5.20;99.90
55064;DHT22;40963;52.168;21.296;2023-02-24T17:54:10;5.20;99.90
55064;DHT22;40963;52.168;21.296;2023-02-24T17:56:36;5.10;99.90
55064;DHT22;40963;52.168;21.296;2023-02-24T17:59:02;5.10;99.90
55064;DHT22;40963;52.168;21.296;2023-02-24T18:01:27;5.00;99.90
55064;DHT22;40963;52.168;21.296;2023-02-24T18:03:54;5.00;99.90
55064;DHT22;40963;52.168;21.296;2023-02-24T18:06:22;4.90;99.90
55064;DHT22;40963;52.168;21.296;2023-02-24T18:08:48;4.90;99.90
55064;DHT22;40963;52.168;21.296;2023-02-24T18:11:15;4.80;99.90
55064;DHT22;40963;52.168;21.296;2023-02-24T18:13:42;4.80;99.90
55064;DHT22;40963;52.168;21.296;2023-02-24T18:16:13;4.70;99.90